createdAt,value
2018-08-09T00:00:49.870Z,5.63
2018-08-09T00:03:18.131Z,5.90
2018-08-09T00:05:46.391Z,5.70
2018-08-09T00:08:14.654Z,5.90
2018-08-09T00:10:42.946Z,5.40
2018-08-09T00:13:11.202Z,5.67
2018-08-09T00:15:39.474Z,5.93
2018-08-09T00:18:07.755Z,5.50
2018-08-09T00:20:36.041Z,5.97
2018-08-09T00:23:04.348Z,5.60
2018-08-09T00:25:32.632Z,5.70
2018-08-09T00:28:00.920Z,5.90
2018-08-09T00:30:29.178Z,5.87
2018-08-09T00:32:57.449Z,5.77
2018-08-09T00:35:25.736Z,5.47
2018-08-09T00:37:54.006Z,5.80
2018-08-09T00:40:22.274Z,5.90
2018-08-09T00:42:50.559Z,5.70
2018-08-09T00:45:18.836Z,5.50
2018-08-09T00:47:47.124Z,5.70
2018-08-09T00:50:15.386Z,5.63
2018-08-09T00:52:43.786Z,5.63
2018-08-09T00:55:12.056Z,5.60
2018-08-09T00:57:40.307Z,6.23
2018-08-09T01:00:08.602Z,6.00
2018-08-09T01:02:36.877Z,6.00
2018-08-09T01:05:05.221Z,5.90
2018-08-09T01:07:33.473Z,5.80
2018-08-09T01:10:01.751Z,6.00
2018-08-09T01:12:30.031Z,5.90
2018-08-09T01:14:58.309Z,5.80
2018-08-09T01:17:26.570Z,6.07
2018-08-09T01:19:54.951Z,6.13
2018-08-09T01:22:23.251Z,5.63
2018-08-09T01:24:51.515Z,6.00
2018-08-09T01:27:19.759Z,6.90
2018-08-09T01:29:48.041Z,5.63
2018-08-09T01:32:16.296Z,5.73
2018-08-09T01:34:44.569Z,6.43
2018-08-09T01:37:12.862Z,5.73
2018-08-09T01:39:41.125Z,6.27
2018-08-09T01:42:20.869Z,6.17
2018-08-09T01:44:49.167Z,6.20
2018-08-09T01:47:17.436Z,5.67
2018-08-09T01:49:45.702Z,5.80
2018-08-09T01:52:13.971Z,6.17
2018-08-09T01:54:42.297Z,6.10
2018-08-09T01:57:10.557Z,5.33
2018-08-09T01:59:38.817Z,6.30
2018-08-09T02:02:07.121Z,5.80
2018-08-09T02:04:35.400Z,6.00
2018-08-09T02:07:03.839Z,6.23
2018-08-09T02:09:33.845Z,6.17
2018-08-09T02:12:03.147Z,5.77
2018-08-09T02:14:31.561Z,6.07
2018-08-09T02:17:00.219Z,5.93
2018-08-09T02:19:28.527Z,6.30
2018-08-09T02:21:56.881Z,6.33
2018-08-09T02:24:25.151Z,6.10
2018-08-09T02:26:53.433Z,6.17
2018-08-09T02:29:21.733Z,6.30
2018-08-09T02:31:50.012Z,6.43
2018-08-09T02:34:18.293Z,6.40
2018-08-09T02:36:46.575Z,6.40
2018-08-09T02:39:14.839Z,6.07
2018-08-09T02:41:43.115Z,6.30
2018-08-09T02:44:11.515Z,6.20
2018-08-09T02:46:39.881Z,6.30
2018-08-09T02:49:08.149Z,6.27
2018-08-09T02:51:36.419Z,6.20
2018-08-09T02:54:04.724Z,6.03
2018-08-09T02:56:32.999Z,6.23
2018-08-09T02:59:01.292Z,6.10
2018-08-09T03:01:29.566Z,6.70
2018-08-09T03:03:57.854Z,6.40
2018-08-09T03:06:26.108Z,6.10
2018-08-09T03:08:54.381Z,5.63
2018-08-09T03:11:22.636Z,5.97
2018-08-09T03:13:50.903Z,5.93
2018-08-09T03:16:19.163Z,5.40
2018-08-09T03:18:47.435Z,5.67
2018-08-09T03:21:15.719Z,5.50
2018-08-09T03:23:43.983Z,5.33
2018-08-09T03:26:12.235Z,5.30
2018-08-09T03:28:40.507Z,5.40
2018-08-09T03:31:08.770Z,5.40
2018-08-09T03:33:37.041Z,5.70
2018-08-09T03:36:05.418Z,5.60
2018-08-09T03:38:33.691Z,5.60
2018-08-09T03:41:01.952Z,5.50
2018-08-09T03:43:30.259Z,5.60
2018-08-09T03:45:58.545Z,5.53
2018-08-09T03:48:26.795Z,5.30
2018-08-09T03:50:55.087Z,5.30
2018-08-09T03:53:23.345Z,5.37
2018-08-09T03:55:51.622Z,5.10
2018-08-09T03:58:19.981Z,4.80
2018-08-09T04:00:48.196Z,5.47
2018-08-09T04:03:16.559Z,5.43
2018-08-09T04:05:44.841Z,5.10
2018-08-09T04:08:13.113Z,5.30
2018-08-09T04:10:41.417Z,5.50
2018-08-09T04:13:09.693Z,5.60
2018-08-09T04:15:38.089Z,5.50
2018-08-09T04:18:06.420Z,5.50
2018-08-09T04:20:34.688Z,5.53
2018-08-09T04:23:03.005Z,5.57
2018-08-09T04:25:31.278Z,5.60
2018-08-09T04:27:59.583Z,5.53
2018-08-09T04:30:27.880Z,5.40
2018-08-09T04:32:56.139Z,5.63
2018-08-09T04:35:24.465Z,5.30
2018-08-09T04:37:52.807Z,5.07
2018-08-09T04:40:21.108Z,5.20
2018-08-09T04:42:49.381Z,5.23
2018-08-09T04:45:17.647Z,5.93
2018-08-09T04:47:45.915Z,5.80
2018-08-09T04:50:14.160Z,5.07
2018-08-09T04:52:42.436Z,5.17
2018-08-09T04:55:10.699Z,5.27
2018-08-09T04:57:38.955Z,5.50
2018-08-09T05:00:07.231Z,5.43
2018-08-09T05:02:35.487Z,5.70
2018-08-09T05:05:03.811Z,5.50
2018-08-09T05:07:32.072Z,4.87
2018-08-09T05:10:05.719Z,5.13
2018-08-09T05:12:33.996Z,5.53
2018-08-09T05:15:02.264Z,5.27
2018-08-09T05:17:30.548Z,5.27
2018-08-09T05:19:58.896Z,5.37
2018-08-09T05:22:27.194Z,5.30
2018-08-09T05:24:55.572Z,5.20
2018-08-09T05:27:23.827Z,5.37
2018-08-09T05:29:52.080Z,5.10
2018-08-09T05:32:20.342Z,5.37
2018-08-09T05:34:48.718Z,5.53
2018-08-09T05:37:17.208Z,5.20
2018-08-09T05:39:45.516Z,5.17
2018-08-09T05:42:13.872Z,5.47
2018-08-09T05:44:42.156Z,5.40
2018-08-09T05:47:10.434Z,5.20
2018-08-09T05:49:38.692Z,5.33
2018-08-09T05:52:06.961Z,5.80
2018-08-09T05:54:35.244Z,5.00
2018-08-09T05:57:03.532Z,5.50
2018-08-09T05:59:31.811Z,5.40
2018-08-09T06:02:00.116Z,5.40
2018-08-09T06:04:28.364Z,5.43
2018-08-09T06:06:56.636Z,5.23
2018-08-09T06:09:24.918Z,5.27
2018-08-09T06:11:53.194Z,5.67
2018-08-09T06:14:21.520Z,4.73
2018-08-09T06:16:49.786Z,5.80
2018-08-09T06:19:18.058Z,5.30
2018-08-09T06:21:46.322Z,5.20
2018-08-09T06:24:14.625Z,5.10
2018-08-09T06:26:42.929Z,5.50
2018-08-09T06:29:11.132Z,5.70
2018-08-09T06:31:39.436Z,5.40
2018-08-09T06:34:07.708Z,5.40
2018-08-09T06:36:36.004Z,5.17
2018-08-09T06:39:06.740Z,5.37
2018-08-09T06:41:35.061Z,5.47
2018-08-09T06:44:03.350Z,5.67
2018-08-09T06:46:31.631Z,5.83
2018-08-09T06:48:59.898Z,5.73
2018-08-09T06:51:28.214Z,5.47
2018-08-09T06:53:56.479Z,5.47
2018-08-09T06:56:25.122Z,5.87
2018-08-09T06:58:53.381Z,5.50
2018-08-09T07:01:21.690Z,5.70
2018-08-09T07:03:49.966Z,5.67
2018-08-09T07:06:18.237Z,5.00
2018-08-09T07:08:46.497Z,5.20
2018-08-09T07:11:14.752Z,5.43
2018-08-09T07:13:43.045Z,5.53
2018-08-09T07:16:11.326Z,5.40
2018-08-09T07:18:39.606Z,5.60
2018-08-09T07:21:08.143Z,5.53
2018-08-09T07:23:36.430Z,5.67
2018-08-09T07:26:04.721Z,5.40
2018-08-09T07:28:32.994Z,5.50
2018-08-09T07:31:01.258Z,5.80
2018-08-09T07:33:29.511Z,6.17
2018-08-09T07:35:57.770Z,6.00
2018-08-09T07:38:26.044Z,5.90
2018-08-09T07:40:54.315Z,5.93
2018-08-09T07:43:22.601Z,5.77
2018-08-09T07:45:50.847Z,5.50
2018-08-09T07:48:19.114Z,5.80
2018-08-09T07:50:47.381Z,6.17
2018-08-09T07:53:15.648Z,6.23
2018-08-09T07:55:43.916Z,5.70
2018-08-09T07:58:12.188Z,6.50
2018-08-09T08:00:40.440Z,5.77
2018-08-09T08:03:08.732Z,5.83
2018-08-09T08:05:37.029Z,6.47
2018-08-09T08:08:05.264Z,5.53
2018-08-09T08:10:33.523Z,5.90
2018-08-09T08:13:01.782Z,5.70
2018-08-09T08:15:30.060Z,6.03
2018-08-09T08:17:58.316Z,5.70
2018-08-09T08:20:26.600Z,6.00
2018-08-09T08:22:54.864Z,5.67
2018-08-09T08:25:23.143Z,5.70
2018-08-09T08:27:51.441Z,5.50
2018-08-09T08:30:19.692Z,5.90
2018-08-09T08:32:47.961Z,6.17
2018-08-09T08:35:16.217Z,5.93
2018-08-09T08:37:44.485Z,5.93
2018-08-09T08:40:12.785Z,5.80
2018-08-09T08:42:41.047Z,5.83
2018-08-09T08:45:11.811Z,5.87
2018-08-09T08:47:40.281Z,6.03
2018-08-09T08:50:08.620Z,5.57
2018-08-09T08:52:36.908Z,5.70
2018-08-09T08:55:07.487Z,5.83
2018-08-09T08:57:35.749Z,5.77
2018-08-09T09:00:05.491Z,5.93
2018-08-09T09:02:34.383Z,5.40
2018-08-09T09:05:02.826Z,5.77
2018-08-09T09:07:31.052Z,4.90
2018-08-09T09:09:59.320Z,5.53
2018-08-09T09:12:27.585Z,5.40
2018-08-09T09:14:55.878Z,5.70
2018-08-09T09:17:24.171Z,6.03
2018-08-09T09:19:52.461Z,6.20
2018-08-09T09:22:20.747Z,6.07
2018-08-09T09:24:49.069Z,5.90
2018-08-09T09:27:17.329Z,6.83
2018-08-09T09:29:45.611Z,6.83
2018-08-09T09:32:14.068Z,7.30
2018-08-09T09:34:42.333Z,6.60
2018-08-09T09:37:10.593Z,6.70
2018-08-09T09:39:38.858Z,6.50
2018-08-09T09:42:07.354Z,7.17
2018-08-09T09:44:35.646Z,6.53
2018-08-09T09:47:03.925Z,6.33
2018-08-09T09:49:32.182Z,6.60
2018-08-09T09:52:00.444Z,6.40
2018-08-09T09:54:28.731Z,6.57
2018-08-09T09:56:57.005Z,7.00
2018-08-09T09:59:25.259Z,6.67
2018-08-09T10:01:53.571Z,6.53
2018-08-09T10:04:21.795Z,6.67
2018-08-09T10:06:50.092Z,7.03
2018-08-09T10:09:18.351Z,6.73
2018-08-09T10:11:46.612Z,7.27
2018-08-09T10:14:14.880Z,6.77
2018-08-09T10:16:43.173Z,6.80
2018-08-09T10:19:11.454Z,5.93
2018-08-09T10:21:39.717Z,7.23
2018-08-09T10:24:08.008Z,6.73
2018-08-09T10:26:36.297Z,6.57
2018-08-09T10:29:04.562Z,6.50
2018-08-09T10:31:32.849Z,6.90
2018-08-09T10:34:01.204Z,6.70
2018-08-09T10:36:29.475Z,6.83
2018-08-09T10:38:57.785Z,6.87
2018-08-09T10:41:26.061Z,6.60
2018-08-09T10:43:54.352Z,6.97
2018-08-09T10:46:22.629Z,6.80
2018-08-09T10:48:50.893Z,6.63
2018-08-09T10:51:19.159Z,6.33
2018-08-09T10:53:47.427Z,6.90
2018-08-09T10:56:15.715Z,6.30
2018-08-09T10:58:43.987Z,6.53
2018-08-09T11:01:12.249Z,7.07
2018-08-09T11:03:40.504Z,6.70
2018-08-09T11:06:08.804Z,6.83
2018-08-09T11:08:37.161Z,6.77
2018-08-09T11:11:10.760Z,6.20
2018-08-09T11:13:39.716Z,6.43
2018-08-09T11:16:08.182Z,7.07
2018-08-09T11:18:36.456Z,6.70
2018-08-09T11:21:04.729Z,7.00
2018-08-09T11:23:33.245Z,7.53
2018-08-09T11:26:01.503Z,7.77
2018-08-09T11:28:30.088Z,6.27
2018-08-09T11:30:58.388Z,5.50
2018-08-09T11:33:26.653Z,5.27
2018-08-09T11:35:55.448Z,4.43
2018-08-09T11:38:23.811Z,3.07
2018-08-09T11:40:52.096Z,3.23
2018-08-09T11:43:20.360Z,3.47
2018-08-09T11:45:48.898Z,3.40
2018-08-09T11:48:17.183Z,3.60
2018-08-09T11:50:45.692Z,3.47
2018-08-09T11:53:14.256Z,3.90
2018-08-09T11:55:42.523Z,4.03
2018-08-09T11:58:10.809Z,3.93
2018-08-09T12:00:39.080Z,4.30
2018-08-09T12:03:07.360Z,4.00
2018-08-09T12:05:35.622Z,4.00
2018-08-09T12:08:03.912Z,4.17
2018-08-09T12:10:32.187Z,4.33
2018-08-09T12:13:00.461Z,3.87
2018-08-09T12:15:28.813Z,3.67
2018-08-09T12:17:57.126Z,4.00
2018-08-09T12:20:25.396Z,4.13
2018-08-09T12:22:53.675Z,3.63
2018-08-09T12:25:21.972Z,3.50
2018-08-09T12:27:50.246Z,3.20
2018-08-09T12:30:18.580Z,3.20
2018-08-09T12:32:46.804Z,3.30
2018-08-09T12:35:15.053Z,2.80
2018-08-09T12:37:43.946Z,2.80
2018-08-09T12:40:12.957Z,2.70
2018-08-09T12:42:41.628Z,2.70
2018-08-09T12:45:11.503Z,3.20
2018-08-09T12:47:40.308Z,2.90
2018-08-09T12:50:11.065Z,2.37
2018-08-09T12:52:39.898Z,2.67
2018-08-09T12:55:08.691Z,2.50
2018-08-09T12:57:36.973Z,2.53
2018-08-09T13:00:07.051Z,2.50
2018-08-09T13:02:35.310Z,2.40
2018-08-09T13:05:03.898Z,1.93
2018-08-09T13:07:32.176Z,2.00
2018-08-09T13:10:00.453Z,2.10
2018-08-09T13:12:28.736Z,2.33
2018-08-09T13:14:57.021Z,2.10
2018-08-09T13:17:25.306Z,2.23
2018-08-09T13:19:53.589Z,2.17
2018-08-09T13:22:21.872Z,2.07
2018-08-09T13:24:50.138Z,1.73
2018-08-09T13:27:18.416Z,2.23
2018-08-09T13:29:46.720Z,2.00
2018-08-09T13:32:14.992Z,2.07
2018-08-09T13:34:43.272Z,1.90
2018-08-09T13:37:11.572Z,1.87
2018-08-09T13:39:40.835Z,1.70
2018-08-09T13:42:09.193Z,2.20
2018-08-09T13:44:37.477Z,2.00
2018-08-09T13:47:05.782Z,1.80
2018-08-09T13:49:34.157Z,1.60
2018-08-09T13:52:02.417Z,1.90
2018-08-09T13:54:30.748Z,1.77
2018-08-09T13:56:59.029Z,1.60
2018-08-09T13:59:27.337Z,1.73
2018-08-09T14:01:55.618Z,2.03
2018-08-09T14:04:23.924Z,1.90
2018-08-09T14:06:52.399Z,1.73
2018-08-09T14:09:20.672Z,2.00
2018-08-09T14:11:48.952Z,1.80
2018-08-09T14:14:17.299Z,1.77
2018-08-09T14:16:45.575Z,1.83
2018-08-09T14:19:13.892Z,2.00
2018-08-09T14:21:42.156Z,2.20
2018-08-09T14:24:10.736Z,2.27
2018-08-09T14:26:39.128Z,2.30
2018-08-09T14:29:07.902Z,2.10
2018-08-09T14:31:36.200Z,2.17
2018-08-09T14:34:04.577Z,2.30
2018-08-09T14:36:32.873Z,2.13
2018-08-09T14:39:01.140Z,2.03
2018-08-09T14:41:29.410Z,2.07
2018-08-09T14:43:57.729Z,1.97
2018-08-09T14:46:26.016Z,2.00
2018-08-09T14:48:54.288Z,2.00
2018-08-09T14:51:22.565Z,2.03
2018-08-09T14:53:50.830Z,2.07
2018-08-09T14:56:19.125Z,2.10
2018-08-09T14:58:47.404Z,2.10
2018-08-09T15:01:15.672Z,2.10
2018-08-09T15:03:43.965Z,2.30
2018-08-09T15:06:12.254Z,2.00
2018-08-09T15:08:40.581Z,2.13
2018-08-09T15:11:09.823Z,2.07
2018-08-09T15:13:38.117Z,2.00
2018-08-09T15:16:06.385Z,2.20
2018-08-09T15:18:34.690Z,2.20
2018-08-09T15:21:02.981Z,2.37
2018-08-09T15:23:31.316Z,1.90
2018-08-09T15:25:59.603Z,2.20
2018-08-09T15:28:27.872Z,1.90
2018-08-09T15:30:56.180Z,1.93
2018-08-09T15:33:24.461Z,1.87
2018-08-09T15:35:52.745Z,1.80
2018-08-09T15:38:21.054Z,2.00
2018-08-09T15:40:49.308Z,1.70
2018-08-09T15:43:17.588Z,1.87
2018-08-09T15:45:45.893Z,1.80
2018-08-09T15:48:14.212Z,1.73
2018-08-09T15:50:42.506Z,2.10
2018-08-09T15:53:10.783Z,1.80
2018-08-09T15:55:39.082Z,2.03
2018-08-09T15:58:07.391Z,1.90
2018-08-09T16:00:35.682Z,1.80
2018-08-09T16:03:04.375Z,1.50
2018-08-09T16:05:32.703Z,1.90
2018-08-09T16:08:01.059Z,1.60
2018-08-09T16:10:29.436Z,1.80
2018-08-09T16:12:57.736Z,1.50
2018-08-09T16:15:26.016Z,1.70
2018-08-09T16:17:54.373Z,1.63
2018-08-09T16:20:22.636Z,1.60
2018-08-09T16:22:50.948Z,1.80
2018-08-09T16:25:19.943Z,1.67
2018-08-09T16:27:49.044Z,1.43
2018-08-09T16:30:19.175Z,1.87
2018-08-09T16:32:47.553Z,1.70
2018-08-09T16:35:15.897Z,1.97
2018-08-09T16:37:44.942Z,1.70
2018-08-09T16:40:19.051Z,1.70
2018-08-09T16:42:47.476Z,1.77
2018-08-09T16:45:16.855Z,1.50
2018-08-09T16:47:45.188Z,1.73
2018-08-09T16:50:16.743Z,2.03
2018-08-09T16:52:45.791Z,1.80
2018-08-09T16:55:15.143Z,1.80
2018-08-09T16:57:43.465Z,1.80
2018-08-09T17:00:15.665Z,1.70
2018-08-09T17:02:44.018Z,1.70
2018-08-09T17:05:15.214Z,1.80
2018-08-09T17:07:43.968Z,1.70
2018-08-09T17:10:13.609Z,1.90
2018-08-09T17:12:42.282Z,2.40
2018-08-09T17:15:14.253Z,1.90
2018-08-09T17:17:42.584Z,2.03
2018-08-09T17:20:20.978Z,1.87
2018-08-09T17:22:49.277Z,1.93
2018-08-09T17:25:17.755Z,2.13
2018-08-09T17:27:46.936Z,2.07
2018-08-09T17:30:16.875Z,1.90
2018-08-09T17:32:45.201Z,1.90
2018-08-09T17:35:14.529Z,1.93
2018-08-09T17:37:42.830Z,1.70
2018-08-09T17:40:16.416Z,1.70
2018-08-09T17:42:44.808Z,1.80
2018-08-09T17:45:13.499Z,1.57
2018-08-09T17:47:41.932Z,1.67
2018-08-09T17:50:10.565Z,1.47
2018-08-09T17:52:38.912Z,1.47
2018-08-09T17:55:10.101Z,1.50
2018-08-09T17:57:38.693Z,1.50
2018-08-09T18:00:09.692Z,1.30
2018-08-09T18:02:38.026Z,1.40
2018-08-09T18:05:07.629Z,1.60
2018-08-09T18:07:36.048Z,1.53
2018-08-09T18:10:06.906Z,1.50
2018-08-09T18:12:35.336Z,1.50
2018-08-09T18:15:04.276Z,1.30
2018-08-09T18:17:32.616Z,1.23
2018-08-09T18:20:00.965Z,1.30
2018-08-09T18:22:29.297Z,1.40
2018-08-09T18:24:57.897Z,1.27
2018-08-09T18:27:26.266Z,1.20
2018-08-09T18:29:54.660Z,1.10
2018-08-09T18:32:22.998Z,1.07
2018-08-09T18:34:51.408Z,1.43
2018-08-09T18:37:19.752Z,1.20
2018-08-09T18:39:48.173Z,1.30
2018-08-09T18:42:16.519Z,1.20
2018-08-09T18:44:45.990Z,1.20
2018-08-09T18:47:14.339Z,1.40
2018-08-09T18:49:42.788Z,1.20
2018-08-09T18:52:12.130Z,1.40
2018-08-09T18:54:40.495Z,1.20
2018-08-09T18:57:08.902Z,1.10
2018-08-09T18:59:37.253Z,1.20
2018-08-09T19:02:05.576Z,1.40
2018-08-09T19:04:34.456Z,0.97
2018-08-09T19:07:02.800Z,1.07
2018-08-09T19:09:31.180Z,1.07
2018-08-09T19:12:01.314Z,1.10
2018-08-09T19:14:32.515Z,1.00
2018-08-09T19:17:00.892Z,1.00
2018-08-09T19:19:29.249Z,1.03
2018-08-09T19:21:57.669Z,1.07
2018-08-09T19:24:26.019Z,0.90
2018-08-09T19:26:55.126Z,0.93
2018-08-09T19:29:23.512Z,1.10
2018-08-09T19:31:51.870Z,1.07
2018-08-09T19:34:20.336Z,1.10
2018-08-09T19:36:48.825Z,1.00
2018-08-09T19:39:17.244Z,1.00
2018-08-09T19:41:45.693Z,0.93
2018-08-09T19:44:14.930Z,0.90
2018-08-09T19:46:43.948Z,1.13
2018-08-09T19:49:12.318Z,0.93
2018-08-09T19:51:40.687Z,1.10
2018-08-09T19:54:09.727Z,1.17
2018-08-09T19:56:38.043Z,1.00
2018-08-09T19:59:06.757Z,1.00
2018-08-09T20:01:35.668Z,1.10
2018-08-09T20:04:04.081Z,0.80
2018-08-09T20:06:32.482Z,1.10
2018-08-09T20:09:00.824Z,0.90
2018-08-09T20:11:29.158Z,1.00
2018-08-09T20:13:58.198Z,0.90
2018-08-09T20:16:26.581Z,0.90
2018-08-09T20:18:54.916Z,1.00
2018-08-09T20:21:23.257Z,0.93
2018-08-09T20:23:51.571Z,0.90
2018-08-09T20:26:19.880Z,1.10
2018-08-09T20:28:48.298Z,1.10
2018-08-09T20:31:16.623Z,1.10
2018-08-09T20:33:44.980Z,1.00
2018-08-09T20:36:13.293Z,1.00
2018-08-09T20:38:42.086Z,1.20
2018-08-09T20:41:10.486Z,1.00
2018-08-09T20:43:38.752Z,1.10
2018-08-09T20:46:07.358Z,1.10
2018-08-09T20:48:35.692Z,0.90
2018-08-09T20:51:03.986Z,0.90
2018-08-09T20:53:32.338Z,0.97
2018-08-09T20:56:00.638Z,1.20
2018-08-09T20:58:28.954Z,1.10
2018-08-09T21:00:57.263Z,0.90
2018-08-09T21:03:30.747Z,0.87
2018-08-09T21:05:59.158Z,1.03
2018-08-09T21:08:27.481Z,1.07
2018-08-09T21:10:55.735Z,1.00
2018-08-09T21:13:24.016Z,1.00
2018-08-09T21:15:52.345Z,0.90
2018-08-09T21:18:20.640Z,1.17
2018-08-09T21:20:49.625Z,1.00
2018-08-09T21:23:17.915Z,0.90
2018-08-09T21:25:46.174Z,1.00
2018-08-09T21:28:14.476Z,1.03
2018-08-09T21:30:42.772Z,0.80
2018-08-09T21:33:11.153Z,0.97
2018-08-09T21:35:39.424Z,1.00
2018-08-09T21:38:07.748Z,1.17
2018-08-09T21:40:36.026Z,1.07
2018-08-09T21:43:04.313Z,0.97
2018-08-09T21:45:32.578Z,0.90
2018-08-09T21:48:00.843Z,0.80
2018-08-09T21:50:29.143Z,0.77
2018-08-09T21:52:57.440Z,1.10
2018-08-09T21:55:25.716Z,0.70
2018-08-09T21:57:53.974Z,1.20
2018-08-09T22:00:45.162Z,0.90
2018-08-09T22:03:13.410Z,0.80
2018-08-09T22:05:46.977Z,0.60
2018-08-09T22:08:20.814Z,0.60
2018-08-09T22:10:54.521Z,0.87
2018-08-09T22:13:28.122Z,0.90
2018-08-09T22:16:01.769Z,0.70
2018-08-09T22:18:35.468Z,0.70
2018-08-09T22:21:09.916Z,0.70
2018-08-09T22:23:38.306Z,0.70
2018-08-09T22:26:06.566Z,0.70
2018-08-09T22:28:34.863Z,0.70
2018-08-09T22:31:03.465Z,0.30
2018-08-09T22:33:31.981Z,0.60
2018-08-09T22:36:00.237Z,0.50
2018-08-09T22:38:28.917Z,0.50
2018-08-09T22:40:57.231Z,0.60
2018-08-09T22:43:25.517Z,0.57
2018-08-09T22:45:53.784Z,0.60
2018-08-09T22:48:22.070Z,0.50
2018-08-09T22:50:50.334Z,0.60
2018-08-09T22:53:18.920Z,0.53
2018-08-09T22:55:47.736Z,0.40
2018-08-09T22:58:16.449Z,0.63
2018-08-09T23:00:44.844Z,0.40
2018-08-09T23:03:13.816Z,0.50
2018-08-09T23:05:42.106Z,0.60
2018-08-09T23:08:12.070Z,0.60
2018-08-09T23:10:41.236Z,0.70
2018-08-09T23:13:10.530Z,0.50
2018-08-09T23:15:39.004Z,0.60
2018-08-09T23:18:07.735Z,0.43
2018-08-09T23:20:36.057Z,0.70
2018-08-09T23:23:04.673Z,0.93
2018-08-09T23:25:32.927Z,0.67
2018-08-09T23:28:01.219Z,0.60
2018-08-09T23:30:29.515Z,0.80
2018-08-09T23:32:57.797Z,0.73
2018-08-09T23:35:26.090Z,1.00
2018-08-09T23:37:54.361Z,0.70
2018-08-09T23:40:23.142Z,1.00
2018-08-09T23:42:51.409Z,0.97
2018-08-09T23:45:19.682Z,0.87
2018-08-09T23:47:47.951Z,0.50
2018-08-09T23:50:18.342Z,0.60
2018-08-09T23:52:46.684Z,0.73
2018-08-09T23:55:16.538Z,0.50
2018-08-09T23:57:44.853Z,0.70
